METAR Data
IDs: Format: Raw Decoded Include TAF

Data at: 0635 UTC 03 Aug 2021

KSIY 030553Z AUTO 09006KT 10SM OVC100 24/M04 A3012 RMK AO2 SLP179 T02441039 10361 20211 51010
KSIY 030453Z AUTO VRB04KT 10SM CLR 27/M03 A3011 RMK AO2 SLP176 T02721033
KSIY 030353Z AUTO 12006KT 10SM CLR 26/M03 A3010 RMK AO2 SLP176 T02611028
KSIY 030253Z AUTO 17010KT 10SM CLR 31/M03 A3008 RMK AO2 SLP171 T03111033 53004
KSIY 030153Z AUTO 19010KT 10SM CLR 33/M02 A3007 RMK AO2 SLP169 T03281017
KSIY 030053Z AUTO 17017KT 10SM CLR 35/M02 A3007 RMK AO2 SLP166 T03501022
KSIY 022353Z AUTO 16019KT 10SM CLR 36/M03 A3007 RMK AO2 PK WND 17030/2254 SLP163 T03611033 10383 20300 56005
KSIY 022253Z AUTO 16025G32KT 10SM CLR 37/M04 A3007 RMK AO2 PK WND 17032/2214 SLP163 T03671039
KSIY 022153Z AUTO 17020G31KT 10SM CLR 37/M04 A3008 RMK AO2 PK WND 16035/2121 SLP164 T03721039
KSIY 022053Z AUTO 17021G28KT 10SM CLR 38/M01 A3009 RMK AO2 PK WND 16029/2015 SLP167 T03781011 56019
KSIY 021953Z AUTO 17020G26KT 10SM CLR 37/01 A3010 RMK AO2 PK WND 17026/1936 SLP172 T03720011
KSIY 021853Z AUTO 17007KT 10SM CLR 34/04 A3013 RMK AO2 SLP181 T03390044
KSIY 021753Z AUTO 00000KT 10SM CLR 30/08 A3015 RMK AO2 SLP189 T03000078 10300 20150 58010
KSIY 021653Z AUTO 35003KT 10SM CLR 28/09 A3017 RMK AO2 SLP195 T02780089
KSIY 021553Z AUTO 00000KT 10SM CLR 24/09 A3018 RMK AO2 SLP201 T02390089
KSIY 021453Z AUTO 00000KT 10SM CLR 19/08 A3018 RMK AO2 SLP204 T01940078 53013
KSIY 021353Z AUTO 00000KT 10SM CLR 16/07 A3017 RMK AO2 SLP199 T01560072 $
KSIY 021253Z AUTO 00000KT 10SM CLR 16/06 A3015 RMK AO2 SLP191 T01610061 $
KSIY 021153Z AUTO 00000KT 10SM CLR 18/07 A3014 RMK AO2 SLP187 T01780067 10272 20167 53003 $
KSIY 021053Z AUTO 02003KT 10SM CLR 19/07 A3013 RMK AO2 SLP184 T01890072 $
KSIY 020953Z AUTO 00000KT 10SM CLR 21/07 A3013 RMK AO2 SLP184 T02060067 $
KSIY 020853Z AUTO 00000KT 10SM CLR 20/06 A3013 RMK AO2 SLP183 T02000061 50003 $
KSIY 020753Z AUTO 00000KT 10SM CLR 21/07 A3013 RMK AO2 SLP186 T02060067 403830156 $
KSIY 020653Z AUTO 07004KT 10SM CLR 24/08 A3012 RMK AO2 SLP181 T02390083 $
KSIY 020553Z AUTO 34007KT 10SM CLR 26/08 A3012 RMK AO2 SLP180 T02560083 10383 20256 51021 $
KSIY 020453Z AUTO 33014G18KT 10SM CLR 29/09 A3011 RMK AO2 SLP177 T02890089 $
KSIY 020353Z AUTO 35013KT 10SM CLR 30/08 A3008 RMK AO2 SLP166 T03000078 $
KSIY 020253Z AUTO 32016KT 10SM CLR 32/08 A3005 RMK AO2 SLP159 T03170083 53010 $
KSIY 020153Z AUTO 18015KT 10SM CLR 37/M01 A3003 RMK AO2 SLP150 T03671011 $
KSIY 020053Z AUTO 10SM CLR 37/07 A3002 RMK AO2 WSHFT 0008 SLP146 T03670072 $
KSIY 020028Z AUTO 25013G18KT 10SM CLR 37/07 A3002 RMK AO2 WSHFT 0008 T03720067 $
KSIY 012353Z AUTO 18016G21KT 10SM CLR 38/05 A3002 RMK AO2 LTG DSNT NW SLP145 T03780050 10378 20289 56016 $
KSIY 012253Z AUTO 28004KT 10SM CLR 36/07 A3004 RMK AO2 LTG DSNT NW SLP151 T03610067 $
KSIY 012153Z AUTO 00000KT 10SM CLR 36/08 A3005 RMK AO2 SLP156 T03610078 $
KSIY 012053Z AUTO VRB04KT 10SM CLR 36/08 A3007 RMK AO2 LTG DSNT NE AND E SLP163 T03560083 58018 $
KSIY 011953Z AUTO 00000KT 10SM CLR 34/10 A3009 RMK AO2 SLP170 T03390100 $
KSIY 011853Z AUTO VRB03KT 10SM CLR 32/10 A3011 RMK AO2 SLP178 T03170100 $